don't click here

Sonic Adventure (DX): Overall Rankings

Records: Times | Rings | Scores | Races | Bosses | Freestyle
Leaders: Times | Rings | Scores | Races | Bosses | Freestyle | Overall
Rank Player Percent Points Date
1 Sonicspeedruner 97.8% 399 12-04-22
2 Gamepro011 97.4% 460 12-04-22
3 DarkPolarNight 96.1% 707 12-04-22
4 Jawzun 92.5% 1375 12-04-22
5 Dashjump 90.9% 1669 12-04-22
6 Avento128bits 89.0% 2007 12-04-22
7 DarkspinesSonic 88.9% 2032 12-04-22
8 ike6252 88.7% 2075 12-04-22
9 F-Man 86.7% 2432 12-04-22
10 Coolfansonic 86.7% 2438 12-04-22
11 TheRealShadnic 84.7% 2812 12-04-22
12 HyperSonic7701 84.0% 2928 12-04-22
13 Nim 83.4% 3041 12-04-22
14 yoshifan 81.8% 3332 12-04-22
15 frankoredstrato 81.3% 3434 12-04-22
16 francisco 80.4% 3603 12-04-22
17 Marth 79.9% 3692 12-04-22
18 InferSaime 78.8% 3892 12-04-22
19 PfoSonic 78.3% 3989 12-04-22
20 Paragod 78.0% 4035 12-04-22
21 THC98 76.9% 4235 12-04-22
22 Stefan 74.5% 4684 12-04-22
23 andy120195 73.6% 4855 12-04-22
24 Dekuboy 73.5% 4859 12-04-22
25 RPGnutter 72.5% 5054 12-04-22
26 bertin 72.3% 5092 12-04-22
27 drminus 72.1% 5120 12-04-22
28 sonicam 70.3% 5462 12-04-22
29 chaos shadow 69.4% 5617 12-04-22
30 chainchump 65.2% 6400 12-04-22
31 Combo 64.2% 6577 12-04-22
32 SkyLights 63.0% 6798 12-04-22
33 xXMegaManXx 61.5% 7067 12-04-22
34 Diamond 61.2% 7120 12-04-22
35 CoEmpathy 59.0% 7529 12-04-22
36 Auriman1 58.9% 7546 12-04-22
37 GerbilSoft 58.9% 7552 12-04-22
38 OmegaDJ 58.8% 7574 12-04-22
39 magnum12 58.0% 7714 12-04-22
40 Thorn 55.7% 8130 12-04-22
41 P1 Pause 55.6% 8162 12-04-22
42 mike89 54.6% 8347 12-04-22
43 Dave Cramer 52.8% 8676 12-04-22
44 Groudon199 52.5% 8726 12-04-22
45 Parax 52.3% 8756 12-04-22
46 SPVLABS 51.4% 8925 12-04-22
47 Shadow Jacky 51.4% 8929 12-04-22
48 Zurggriff 48.0% 9548 12-04-22
49 Niczur 47.0% 9736 12-04-22
50 Psymar 46.3% 9860 12-04-22
51 Arch 45.5% 10018 12-04-22
52 Chao_Fan 44.8% 10149 12-04-22
53 mauserman 44.5% 10197 12-04-22
54 Quartz 43.5% 10379 12-04-22
55 teamblackarms 43.0% 10483 12-04-22
56 Psyknux 42.5% 10558 12-04-22
57 James_Bertolli 41.7% 10707 12-04-22
58 Cyan Ryan 41.6% 10725 12-04-22
59 NintenDan 41.5% 10745 12-04-22
60 danieldude 41.3% 10786 12-04-22
61 Ring Rush 40.9% 10864 12-04-22
62 Turbos 40.7% 10892 12-04-22
63 Webber3000 40.7% 10900 12-04-22
64 Fr3nZy 40.7% 10907 12-04-22
65 Cream147 40.4% 10948 12-04-22
66 Siavash Tazari 40.1% 11001 12-04-22
67 videogamemaster777 40.1% 11003 12-04-22
68 buddychaos0415 39.6% 11093 12-04-22
69 SadisticMystic 39.2% 11177 12-04-22
70 ethmar 39.1% 11195 12-04-22
71 eggFL 38.1% 11383 12-04-22
72 Calfd 37.7% 11441 12-04-22
73 SB737 36.7% 11634 12-04-22
74 supersonic465 36.1% 11743 12-04-22
75 supersonicfan 35.5% 11854 12-04-22
76 FuzZerd 34.3% 12066 12-04-22
77 Aitamen 34.0% 12138 12-04-22
78 BigAL49 33.5% 12216 12-04-22
79 elecmouse101 33.4% 12237 12-04-22
80 Austinf 33.2% 12281 12-04-22
81 metanightmare22 32.3% 12439 12-04-22
82 dabestgamer 32.0% 12504 12-04-22
83 MiStEr_ShAoLiN 31.7% 12556 12-04-22
84 Mastakirby 31.3% 12634 12-04-22
85 Andrea Ritsu 31.0% 12674 12-04-22
86 itsPersonnal 31.0% 12688 12-04-22
87 Cybrax 30.2% 12827 12-04-22
88 WeegeeZV 30.1% 12852 12-04-22
89 SilvertheAlmighty 29.9% 12881 12-04-22
90 JamminX42 29.8% 12902 12-04-22
91 VMU Player Banned 28.3% 13185 12-04-22
92 Omega Rafael Santos 27.7% 13297 12-04-22
93 Staf 27.4% 13344 12-04-22
94 The T 27.1% 13405 12-04-22
95 EngiNerd 26.8% 13457 12-04-22
96 lordmetalsonic 26.4% 13519 12-04-22
97 Hipertails12 26.4% 13536 12-04-22
98 welldooder64 25.9% 13621 12-04-22
99 GreatStar 25.7% 13660 12-04-22
100 The Great Lord Mick 25.5% 13699 12-04-22
101 Sondow 25.3% 13736 12-04-22
102 LinksDarkArrows 25.2% 13755 12-04-22
103 Skylace 24.3% 13909 12-04-22
104 a_moustache 23.6% 14047 12-04-22
105 Rolken 22.8% 14192 12-04-22
106 Pokemonmaster888 21.6% 14409 12-04-22
107 Spinballwizard 21.2% 14490 12-04-22
108 Xia 21.1% 14494 12-04-22
109 Kogen Player Banned 21.1% 14505 12-04-22
110 Don 20.9% 14546 12-04-22
111 f0rever_zer0 20.7% 14570 12-04-22
112 Twilisailor 20.7% 14577 12-04-22
113 Miles9999 20.7% 14578 12-04-22
114 Game_Complete 20.7% 14579 12-04-22
115 iden1 20.6% 14601 12-04-22
116 Cutiefox 20.5% 14620 12-04-22
117 andres430 19.8% 14738 12-04-22
118 Cruizer 19.7% 14762 12-04-22
119 iSonicKid2K 19.5% 14796 12-04-22
120 SADXTryHard 19.5% 14800 12-04-22
121 N 18.9% 14915 12-04-22
122 GarnetPrincess 18.8% 14925 12-04-22
123 AxlThunder 18.6% 14963 12-04-22
124 knuckles_sonic8 18.1% 15056 12-04-22
125 KinkyCadence 17.7% 15120 12-04-22
126 Team_Yoshi 17.7% 15122 12-04-22
127 The Knuckles Chao 17.6% 15145 12-04-22
128 Termon 17.4% 15185 12-04-22
129 LittleBigness 17.3% 15205 12-04-22
130 SonicWinDX 17.2% 15226 12-04-22
131 FoxBoy 17.1% 15239 12-04-22
132 Zethor 17.0% 15251 12-04-22
133 Drakodan 16.4% 15362 12-04-22
134 Modest 16.2% 15412 12-04-22
135 Sonic Singularity 15.2% 15584 12-04-22
136 paulie9990 14.7% 15689 12-04-22
137 SilverSonic 14.1% 15789 12-04-22
138 sonicd5 14.0% 15809 12-04-22
139 MPit08 13.9% 15831 12-04-22
140 Mo Player Banned 13.6% 15879 12-04-22
141 koinu93 13.4% 15914 12-04-22
142 Cod4Scopes 13.2% 15959 12-04-22
143 Hunters13 13.0% 15997 12-04-22
144 Jerzia 13.0% 16000 12-04-22
145 HyperSonic64 12.9% 16004 12-04-22
146 booo95 12.8% 16028 12-04-22
147 Chawkk 12.7% 16049 12-04-22
148 SuperSonic101 12.6% 16075 12-04-22
149 Maxinfamily 12.5% 16086 12-04-22
150 R3FR4G 12.5% 16091 12-04-22
151 PsyBorg 12.3% 16130 12-04-22
152 Kanimayo_Jp 12.2% 16138 12-04-22
153 Flying Fox 12.2% 16149 12-04-22
154 LilZero 12.1% 16160 12-04-22
155 BrokenArthritis 12.0% 16174 12-04-22
156 Therio 11.7% 16240 12-04-22
157 sonicspeed 11.3% 16299 12-04-22
158 SonicAD 11.2% 16317 12-04-22
159 douglas 11.2% 16330 12-04-22
160 AlphaDolphin 11.1% 16343 12-04-22
161 thewaytodawnnn 11.0% 16364 12-04-22
162 Matt_TY 10.9% 16372 12-04-22
163 ModifiedMonkee 10.9% 16376 12-04-22
164 SuperBlitzCraig 10.4% 16478 12-04-22
165 joecoolgames 10.3% 16482 12-04-22
166 Cooljay 10.3% 16485 12-04-22
167 SeaWolf 10.2% 16504 12-04-22
168 videogamer1014 10.0% 16547 12-04-22
169 AC-Tygo 9.8% 16586 12-04-22
170 welshmoose05 9.7% 16596 12-04-22
171 OddCook 9.5% 16634 12-04-22
172 crazy1993 9.4% 16649 12-04-22
173 TFEC Headshot 9.4% 16655 12-04-22
174 Mcshuggets 9.3% 16668 12-04-22
175 Mariobutch 9.3% 16680 12-04-22
176 Irregular Zero 9.0% 16730 12-04-22
177 niscool 8.9% 16740 12-04-22
178 nuckrieg 8.8% 16757 12-04-22
179 Shadowthegreat 8.6% 16802 12-04-22
180 superjupi 8.6% 16806 12-04-22
181 SirTobbii 8.5% 16818 12-04-22
182 Powerjohn25 8.3% 16848 12-04-22
183 sonamyfan666 8.3% 16853 12-04-22
184 iarebored 8.3% 16857 12-04-22
185 SaviourDC 8.3% 16863 12-04-22
186 Badlex727 8.2% 16876 12-04-22
187 SonicKnuckles 8.2% 16881 12-04-22
188 Yoshipuff 8.1% 16885 12-04-22
189 Werey 8.0% 16907 12-04-22
190 adf 7.9% 16939 12-04-22
191 ArcticDragon 7.5% 16997 12-04-22
192 Megaman EXE565 7.5% 16998 12-04-22
193 Platformer 7.2% 17054 12-04-22
194 Swift Hobo 7.1% 17076 12-04-22
195 timpkmn89 7.1% 17079 12-04-22
196 FocusSight64 7.1% 17080 12-04-22
197 Vicklaw 7.0% 17100 12-04-22
198 wheatrich 6.9% 17112 12-04-22
199 Rickyman48 6.8% 17128 12-04-22
200 Sm4sh 6.7% 17153 12-04-22
201 KitsuneYamaro 6.7% 17160 12-04-22
202 Tethys 6.4% 17199 12-04-22
203 Triseena 6.4% 17210 12-04-22
204 Starlight Sable 6.3% 17229 12-04-22
205 CyberShadow 6.3% 17232 12-04-22
206 Destroyer121121 6.2% 17237 12-04-22
207 slade23 6.2% 17246 12-04-22
208 dShadow 6.1% 17262 12-04-22
209 IsisDazs 6.1% 17265 12-04-22
210 BlankTH 5.8% 17313 12-04-22
211 Monkeh 5.7% 17335 12-04-22
212 SonicU260 5.5% 17371 12-04-22
213 Swinkly 5.5% 17381 12-04-22
214 Richied 5.4% 17387 12-04-22
215 DaDude 5.4% 17388 12-04-22
216 Crispian 5.4% 17390 12-04-22
217 Zip 5.3% 17416 12-04-22
218 VeritasDL 5.1% 17449 12-04-22
219 tal39h 4.9% 17476 12-04-22
220 Kirbymon30 4.9% 17481 12-04-22
221 ALundstrom10 4.9% 17487 12-04-22
222 soniccoloursunleashed 4.7% 17519 12-04-22
223 Drflash55 4.6% 17536 12-04-22
224 Bass 4.6% 17543 12-04-22
225 Yish 4.5% 17554 12-04-22
226 neaolas 4.5% 17563 12-04-22
227 zapp 4.5% 17565 12-04-22
228 ArthurVGCP 4.4% 17570 12-04-22
229 UninspiredUsername 4.4% 17571 12-04-22
230 Sonicsuperstar1 4.4% 17577 12-04-22
231 superiorsonic 4.4% 17579 12-04-22
232 gamefreak1292 4.3% 17588 12-04-22
233 Sora_yx 4.2% 17620 12-04-22
234 Chaos_Overlord 3.9% 17661 12-04-22
235 TakaRikka 3.9% 17673 12-04-22
236 Valfore 3.8% 17678 12-04-22
237 Dage4Aquatic 3.8% 17693 12-04-22
238 ShinigamiMachine 3.7% 17705 12-04-22
239 Regano1000 3.6% 17730 12-04-22
240 MK 3.5% 17742 12-04-22
241 Ace747 3.4% 17756 12-04-22
242 Jua Rever 3.3% 17784 12-04-22
243 Sithwarrior26 3.1% 17812 12-04-22
244 Illidan 3.0% 17824 12-04-22
245 Venick409 3.0% 17825 12-04-22
246 HHNNBBHHN 3.0% 17826 12-04-22
247 Brian_pso 3.0% 17832 12-04-22
248 nman36 3.0% 17835 12-04-22
249 Egor305 2.8% 17863 12-04-22
250 ingx24 2.8% 17867 12-04-22
251 TheChaosEmeraIds 2.8% 17870 12-04-22
252 Nickson98 2.7% 17880 12-04-22
253 SkyBon 2.7% 17882 12-04-22
254 FSSRandomvids 2.7% 17884 12-04-22
255 dekki1234 2.7% 17889 12-04-22
256 Fozer 2.6% 17904 12-04-22
256 sonic29887 2.6% 17904 12-04-22
258 TheUltraBlur 2.6% 17914 12-04-22
259 Aiko 2.5% 17915 12-04-22
259 Colomb_30 2.5% 17915 12-04-22
261 1stKirbyever 2.5% 17923 12-04-22
262 TimTH 2.4% 17938 12-04-22
263 Th4tN1nj4Turtl3 2.3% 17968 12-04-22
264 Cort_pso 2.2% 17974 12-04-22
265 ieatatsonic 2.2% 17981 12-04-22
266 Doom-9 2.2% 17983 12-04-22
267 Mariosonic15 2.1% 17995 12-04-22
268 MStitomix 2.1% 18004 12-04-22
269 HermitHelmet 2.0% 18009 12-04-22
270 arcfx1985 2.0% 18014 12-04-22
271 SuperSonic71087 1.9% 18028 12-04-22
272 Got4n 1.9% 18031 12-04-22
273 Artie 1.9% 18034 12-04-22
274 Questionguy555 1.9% 18035 12-04-22
275 Jose_15 1.9% 18039 12-04-22
276 djmat 1.8% 18053 12-04-22
277 SuperSonicfan9595 1.8% 18059 12-04-22
278 sonicandamy 1.7% 18075 12-04-22
279 LancexExWx 1.6% 18081 12-04-22
280 Paixii 1.6% 18084 12-04-22
281 son1cgu1tar 1.6% 18089 12-04-22
282 Heroes_Hater 1.5% 18102 12-04-22
283 BallzeH 1.5% 18106 12-04-22
284 Jamixesa 1.5% 18109 12-04-22
285 Mankster101 1.5% 18113 12-04-22
286 BecauseWarAnvil 1.4% 18118 12-04-22
287 Xandre69 1.4% 18120 12-04-22
288 Shanekilz 1.4% 18129 12-04-22
289 Crydio 1.4% 18130 12-04-22
289 SpiritDragon1995 1.4% 18130 12-04-22
291 MarewBFN 1.3% 18146 12-04-22
292 stanski 1.3% 18148 12-04-22
293 Sonique Hedgehog 1.3% 18153 12-04-22
294 Blue Infamy 1.2% 18165 12-04-22
295 p0ker 1.2% 18169 12-04-22
296 ErrortheCucco 1.1% 18176 12-04-22
297 Rikum22 1.1% 18179 12-04-22
298 Arthas 1.1% 18180 12-04-22
299 sonic1001 1.1% 18188 12-04-22
300 AJSIV 1.0% 18192 12-04-22
301 syco1098 1.0% 18194 12-04-22
302 IDGeek121 1.0% 18195 12-04-22
303 Sonic the Hedgehod16 1.0% 18196 12-04-22
304 WingedInsignia 1.0% 18198 12-04-22
305 ASINISTERTACO 1.0% 18203 12-04-22
306 sonicfan9 0.9% 18210 12-04-22
307 BlackArmsShadow 0.9% 18220 12-04-22
307 themachoman202 0.9% 18220 12-04-22
309 Fivavoa 0.8% 18229 12-04-22
309 shadowblast63 Player Banned 0.8% 18229 12-04-22
311 Mr. Jones 0.8% 18231 12-04-22
312 Ben1502 0.8% 18232 12-04-22
312 TommyeAsY 0.8% 18232 12-04-22
314 Greham Adelphis 0.8% 18234 12-04-22
314 MastaToken 0.8% 18234 12-04-22
316 darkstarblaze 0.8% 18235 12-04-22
317 FlandreScarlet9999vr 0.8% 18240 12-04-22
317 ptorflaxendrosis 0.8% 18240 12-04-22
319 Gvozdevik 0.8% 18241 12-04-22
320 Knuckles 0.8% 18245 12-04-22
320 Zeldocto 0.8% 18245 12-04-22
322 BeeAwwb 0.7% 18250 12-04-22
323 KaM Mark MaK 0.7% 18254 12-04-22
324 ShadouZaHejjihoggu 0.7% 18255 12-04-22
325 Sonic The Star 0.6% 18265 12-04-22
326 darkersupershadic 0.6% 18266 12-04-22
327 Sogeking 0.6% 18268 12-04-22
328 Sonic62 0.6% 18270 12-04-22
329 Sarger001 0.6% 18274 12-04-22
330 dragondragon18 0.6% 18275 12-04-22
330 Grady219 0.6% 18275 12-04-22
330 SonicK100 0.6% 18275 12-04-22
333 Shadygamerfreak 0.6% 18277 12-04-22
334 Jawaah 0.6% 18279 12-04-22
335 Antek 0.5% 18284 12-04-22
335 SpinDashMaster 0.5% 18284 12-04-22
337 Klaus 0.5% 18286 12-04-22
338 SilverK 0.5% 18289 12-04-22
339 BioShadow 0.5% 18291 12-04-22
340 Videogamer123 0.5% 18299 12-04-22
341 IcKY 0.4% 18302 12-04-22
342 oTaiIilLsS 0.4% 18309 12-04-22
343 isaihtb11 0.4% 18310 12-04-22
344 OhNoes! 0.4% 18314 12-04-22
345 Mad Andy 0.4% 18316 12-04-22
345 zaktu40 0.4% 18316 12-04-22
347 S-MS32X-S 0.4% 18317 12-04-22
348 gaara1234 0.4% 18319 12-04-22
349 gamed00d 0.3% 18325 12-04-22
350 Mister_Slick 0.3% 18330 12-04-22
351 Sonic06Fan 0.3% 18334 12-04-22
352 Rush Hero 0.3% 18336 12-04-22
353 ChaosNexuss 0.3% 18337 12-04-22
354 SonicMega167 0.2% 18342 12-04-22
355 Iwannabelink 0.2% 18343 12-04-22
356 sonknuck23 0.2% 18345 12-04-22
357 DanielTheFalcon 0.2% 18354 12-04-22
357 gamer1245 0.2% 18354 12-04-22
359 Burningskull123 0.1% 18361 12-04-22
360 Sonicontherun 0.1% 18372 12-04-22
361 Lil_Dude 0.1% 18374 12-04-22
362 antiwwe 0.0% 18378 12-04-22
363 Genuine Hedgehog 0.0% 18381 12-04-22
364 Cbwade15 0.0% 18382 12-04-22
365 Tyrouble 0.0% 18386 12-04-22
366 MakoHNM 0.0% 18393 12-04-22
366 MegabombBlade 0.0% 18393 12-04-22
366 neji_hyuuga 0.0% 18393 12-04-22
366 Over 0.0% 18393 12-04-22
366 sdj6707 Player Banned 0.0% 18393 12-04-22
366 Tran Sonic Fan Player Banned 0.0% 18393 12-04-22

This page is using the New Data Table System. [FUTURE]

Game ID: 3 | Category ID: 10
Hits: 83,615 | Hits This Month: 25 | DB Calls: 21 | Mem Usage: 956.39 KB | Time: 0.05s | Printable

The Sonic Center v3.9
Copyright 2003-2011 by The Sonic Center Team.